createdAt,value
2023-04-17T00:02:12.179Z,7.91
2023-04-17T00:07:14.823Z,7.88
2023-04-17T00:12:16.971Z,7.85
2023-04-17T00:17:19.108Z,7.81
2023-04-17T00:22:21.217Z,7.79
2023-04-17T00:27:23.925Z,7.76
2023-04-17T00:32:25.858Z,7.73
2023-04-17T00:37:27.879Z,7.71
2023-04-17T00:42:29.687Z,7.67
2023-04-17T00:47:33.195Z,7.61
2023-04-17T00:52:35.078Z,7.56
2023-04-17T00:57:37.436Z,7.49
2023-04-17T01:02:40.215Z,7.42
2023-04-17T01:07:44.021Z,7.37
2023-04-17T01:12:49.419Z,7.32
2023-04-17T01:17:52.412Z,7.27
2023-04-17T01:22:54.200Z,7.20
2023-04-17T01:27:57.317Z,7.12
2023-04-17T01:33:01.131Z,7.06
2023-04-17T01:38:04.190Z,6.98
2023-04-17T01:43:06.155Z,6.86
2023-04-17T01:48:08.288Z,6.75
2023-04-17T01:53:10.381Z,6.64
2023-04-17T01:58:12.320Z,6.54
2023-04-17T02:03:14.677Z,6.46
2023-04-17T02:08:17.335Z,6.40
2023-04-17T02:13:19.213Z,6.37
2023-04-17T02:18:21.285Z,6.34
2023-04-17T02:23:23.222Z,6.31
2023-04-17T02:28:25.638Z,6.27
2023-04-17T02:33:28.200Z,6.21
2023-04-17T02:38:30.678Z,6.14
2023-04-17T02:43:32.886Z,6.07
2023-04-17T02:48:34.818Z,6.01
2023-04-17T02:53:36.650Z,5.96
2023-04-17T02:58:39.756Z,5.91
2023-04-17T03:03:43.205Z,5.82
2023-04-17T03:08:47.932Z,5.77
2023-04-17T03:13:50.723Z,5.73
2023-04-17T03:18:52.787Z,5.67
2023-04-17T03:23:54.689Z,5.62
2023-04-17T03:28:58.128Z,5.64
2023-04-17T03:34:00.659Z,5.67
2023-04-17T03:39:03.158Z,5.72
2023-04-17T03:44:05.832Z,5.74
2023-04-17T03:49:08.227Z,5.73
2023-04-17T03:54:10.404Z,5.70
2023-04-17T03:59:12.515Z,5.70
2023-04-17T04:04:17.547Z,5.71
2023-04-17T04:09:27.484Z,5.74
2023-04-17T04:14:29.832Z,5.81
2023-04-17T04:19:31.952Z,5.89
2023-04-17T04:24:35.349Z,5.96
2023-04-17T04:29:38.821Z,6.01
2023-04-17T04:34:44.794Z,6.08
2023-04-17T04:39:48.021Z,6.17
2023-04-17T04:44:50.698Z,6.28
2023-04-17T04:49:53.947Z,6.40
2023-04-17T04:54:56.364Z,6.53
2023-04-17T04:59:59.599Z,6.65
2023-04-17T05:05:11.160Z,6.83
2023-04-17T05:10:13.822Z,7.03
2023-04-17T05:15:20.421Z,7.21
2023-04-17T05:20:23.468Z,7.32
2023-04-17T05:25:29.107Z,7.41
2023-04-17T05:30:32.268Z,7.48
2023-04-17T05:35:43.828Z,7.52
2023-04-17T05:40:46.268Z,7.57
2023-04-17T05:45:49.091Z,7.68
2023-04-17T05:50:51.402Z,7.89
2023-04-17T05:55:53.198Z,8.11
2023-04-17T06:00:56.891Z,8.33
2023-04-17T06:06:00.250Z,8.49
2023-04-17T06:11:02.390Z,8.67
2023-04-17T06:16:05.767Z,8.82
2023-04-17T06:21:08.244Z,8.95
2023-04-17T06:26:12.355Z,9.08
2023-04-17T06:31:15.862Z,9.29
2023-04-17T06:36:18.094Z,9.61
2023-04-17T06:41:31.052Z,9.98
2023-04-17T06:46:33.033Z,10.37
2023-04-17T06:51:39.040Z,10.71
2023-04-17T06:56:41.097Z,10.91
2023-04-17T07:01:43.107Z,10.82
2023-04-17T07:06:45.231Z,10.82
2023-04-17T07:11:47.259Z,10.87
2023-04-17T07:16:49.272Z,10.83
2023-04-17T07:21:52.034Z,10.75
2023-04-17T07:26:53.995Z,10.75
2023-04-17T07:31:56.543Z,10.83
2023-04-17T07:36:58.581Z,10.97
2023-04-17T07:42:03.037Z,11.08
2023-04-17T07:47:04.964Z,11.14
2023-04-17T07:52:07.107Z,11.16
2023-04-17T07:57:09.029Z,11.18
2023-04-17T08:02:11.260Z,11.23
2023-04-17T08:07:13.194Z,11.61
2023-04-17T08:12:15.207Z,12.05
2023-04-17T08:17:20.346Z,12.41
2023-04-17T08:22:24.244Z,12.66
2023-04-17T08:27:26.209Z,12.69
2023-04-17T08:32:28.610Z,12.69
2023-04-17T08:37:34.253Z,12.75
2023-04-17T08:42:38.146Z,12.81
2023-04-17T08:47:42.283Z,13.05
2023-04-17T08:52:47.661Z,13.15
2023-04-17T08:58:04.102Z,13.40
2023-04-17T09:03:08.527Z,13.82
2023-04-17T09:08:13.377Z,13.83
2023-04-17T09:13:25.056Z,13.79
2023-04-17T09:18:31.154Z,13.88
2023-04-17T09:23:56.165Z,13.87
2023-04-17T09:29:11.375Z,13.87
2023-04-17T09:34:15.455Z,13.93
2023-04-17T09:39:20.941Z,14.07
2023-04-17T09:44:28.455Z,14.29
2023-04-17T09:49:35.130Z,14.28
2023-04-17T09:54:40.010Z,14.27
2023-04-17T09:59:47.911Z,14.35
2023-04-17T10:04:49.854Z,14.60
2023-04-17T10:09:51.999Z,14.72
2023-04-17T10:14:55.106Z,14.83
2023-04-17T10:20:20.296Z,14.93
2023-04-17T10:25:29.759Z,14.88
2023-04-17T10:30:54.902Z,14.94
2023-04-17T10:35:57.821Z,15.14
2023-04-17T10:41:02.700Z,15.40
2023-04-17T10:46:15.222Z,15.67
2023-04-17T10:51:29.299Z,16.00
2023-04-17T10:56:38.685Z,16.25
2023-04-17T11:01:58.343Z,16.30
2023-04-17T11:07:01.053Z,16.20
2023-04-17T11:12:03.255Z,16.20
2023-04-17T11:17:05.609Z,16.27
2023-04-17T11:22:09.688Z,16.10
2023-04-17T11:27:11.800Z,15.83
2023-04-17T11:32:13.740Z,15.53
2023-04-17T11:37:16.221Z,15.21
2023-04-17T11:42:27.802Z,14.95
2023-04-17T11:47:30.067Z,14.65
2023-04-17T11:52:32.288Z,14.38
2023-04-17T11:57:43.653Z,14.14
2023-04-17T12:02:45.677Z,14.00
2023-04-17T12:07:47.916Z,13.88
2023-04-17T12:12:49.840Z,13.77
2023-04-17T12:17:51.962Z,13.75
2023-04-17T12:22:53.810Z,13.74
2023-04-17T12:27:59.163Z,13.68
2023-04-17T12:33:01.787Z,13.65
2023-04-17T12:38:04.194Z,13.68
2023-04-17T12:43:08.715Z,13.78
2023-04-17T12:48:11.511Z,13.94
2023-04-17T12:53:14.605Z,14.06
2023-04-17T12:58:16.881Z,14.14
2023-04-17T13:03:18.887Z,14.19
2023-04-17T13:08:21.521Z,14.20
2023-04-17T13:13:23.559Z,14.19
2023-04-17T13:18:26.491Z,14.20
2023-04-17T13:23:28.440Z,14.22
2023-04-17T13:28:30.519Z,14.19
2023-04-17T13:33:32.438Z,14.19
2023-04-17T13:38:35.074Z,14.20
2023-04-17T13:43:37.101Z,14.18
2023-04-17T13:48:39.368Z,14.30
2023-04-17T13:53:41.199Z,14.46
2023-04-17T13:58:44.540Z,14.69
2023-04-17T14:03:47.417Z,14.93
2023-04-17T14:08:49.845Z,15.13
2023-04-17T14:13:51.820Z,15.36
2023-04-17T14:18:54.099Z,15.45
2023-04-17T14:23:56.991Z,15.29
2023-04-17T14:28:59.017Z,14.94
2023-04-17T14:34:00.799Z,14.56
2023-04-17T14:39:03.374Z,14.24
2023-04-17T14:44:05.376Z,13.92
2023-04-17T14:49:08.661Z,13.72
2023-04-17T14:54:10.518Z,13.57
2023-04-17T14:59:12.729Z,13.44
2023-04-17T15:04:15.130Z,13.35
2023-04-17T15:09:17.335Z,13.24
2023-04-17T15:14:19.974Z,13.09
2023-04-17T15:19:21.992Z,12.88
2023-04-17T15:24:23.779Z,12.75
2023-04-17T15:29:25.841Z,12.64
2023-04-17T15:34:27.669Z,12.57
2023-04-17T15:39:30.416Z,12.52
2023-04-17T15:44:34.090Z,12.51
2023-04-17T15:49:36.074Z,12.49
2023-04-17T15:54:37.936Z,12.44
2023-04-17T15:59:40.115Z,12.36
2023-04-17T16:04:43.873Z,12.24
2023-04-17T16:09:48.048Z,12.13
2023-04-17T16:14:50.778Z,12.08
2023-04-17T16:19:52.947Z,12.04
2023-04-17T16:24:54.764Z,11.97
2023-04-17T16:29:56.837Z,11.91
2023-04-17T16:34:59.168Z,11.86
2023-04-17T16:40:05.328Z,11.82
2023-04-17T16:45:08.314Z,11.77
2023-04-17T16:50:12.556Z,11.71
2023-04-17T16:55:17.148Z,11.62
2023-04-17T17:00:20.206Z,11.55
2023-04-17T17:05:22.223Z,11.46
2023-04-17T17:10:24.238Z,11.36
2023-04-17T17:15:26.569Z,11.29
2023-04-17T17:20:28.735Z,11.23
2023-04-17T17:25:30.733Z,11.20
2023-04-17T17:30:32.837Z,11.15
2023-04-17T17:35:34.770Z,11.08
2023-04-17T17:40:37.452Z,11.01
2023-04-17T17:45:39.518Z,10.93
2023-04-17T17:50:42.943Z,10.85
2023-04-17T17:55:53.173Z,10.77
2023-04-17T18:00:55.317Z,10.69
2023-04-17T18:05:57.263Z,10.62
2023-04-17T18:11:01.616Z,10.54
2023-04-17T18:16:05.019Z,10.47
2023-04-17T18:21:08.304Z,10.40
2023-04-17T18:26:10.281Z,10.33
2023-04-17T18:31:12.585Z,10.26
2023-04-17T18:36:14.394Z,10.20
2023-04-17T18:41:16.736Z,10.16
2023-04-17T18:46:18.784Z,10.12
2023-04-17T18:51:21.818Z,10.06
2023-04-17T18:56:26.787Z,10.00
2023-04-17T19:01:29.153Z,9.95
2023-04-17T19:06:31.719Z,9.89
2023-04-17T19:11:34.119Z,9.83
2023-04-17T19:16:36.265Z,9.79
2023-04-17T19:21:38.480Z,9.73
2023-04-17T19:26:40.796Z,9.70
2023-04-17T19:31:43.452Z,9.67
2023-04-17T19:36:45.422Z,9.65
2023-04-17T19:41:51.061Z,9.63
2023-04-17T19:46:53.302Z,9.60
2023-04-17T19:51:55.356Z,9.59
2023-04-17T19:56:57.212Z,9.59
2023-04-17T20:01:59.678Z,9.57
2023-04-17T20:07:02.230Z,9.53
2023-04-17T20:12:05.807Z,9.48
2023-04-17T20:17:08.715Z,9.44
2023-04-17T20:22:10.964Z,9.42
2023-04-17T20:27:12.792Z,9.39
2023-04-17T20:32:15.296Z,9.35
2023-04-17T20:37:17.193Z,9.32
2023-04-17T20:42:19.591Z,9.28
2023-04-17T20:47:21.561Z,9.24
2023-04-17T20:52:23.916Z,9.20
2023-04-17T20:57:25.967Z,9.16
2023-04-17T21:02:28.165Z,9.14
2023-04-17T21:07:31.020Z,9.12
2023-04-17T21:12:35.324Z,9.09
2023-04-17T21:17:39.446Z,9.06
2023-04-17T21:22:41.842Z,9.05
2023-04-17T21:27:43.834Z,9.03
2023-04-17T21:32:47.611Z,9.01
2023-04-17T21:37:49.704Z,9.00
2023-04-17T21:42:52.945Z,8.97
2023-04-17T21:47:54.908Z,8.94
2023-04-17T21:52:58.531Z,8.94
2023-04-17T21:58:00.632Z,8.94
2023-04-17T22:03:03.341Z,8.94
2023-04-17T22:08:05.299Z,8.95
2023-04-17T22:13:07.363Z,8.95
2023-04-17T22:18:09.349Z,8.94
2023-04-17T22:23:11.265Z,8.93
2023-04-17T22:28:13.144Z,8.94
2023-04-17T22:33:15.526Z,8.92
2023-04-17T22:38:18.988Z,8.90
2023-04-17T22:43:21.040Z,8.89
2023-04-17T22:48:24.691Z,8.87
2023-04-17T22:53:26.937Z,8.83
2023-04-17T22:58:31.985Z,8.81
2023-04-17T23:03:35.066Z,8.78
2023-04-17T23:08:37.556Z,8.75
2023-04-17T23:13:45.780Z,8.72
2023-04-17T23:18:47.998Z,8.71
2023-04-17T23:23:51.670Z,8.69
2023-04-17T23:28:53.623Z,8.69
2023-04-17T23:33:55.891Z,8.67
2023-04-17T23:38:57.746Z,8.65
2023-04-17T23:44:00.593Z,8.64
2023-04-17T23:49:06.709Z,8.65
2023-04-17T23:54:10.452Z,8.64
2023-04-17T23:59:12.288Z,8.65
